Flight Track Log - Related Links

Times and Time Zones

All times are in EDT time to prevent confusion due to time zone crossing. See the JST243 flight status page for this flight to view local times or setup timezone preferences in your user account.


Time Position Orientation Groundspeed Altitude Reporting Facility
EDT Latitude Longitude Course Direction KTS MPH feet Rate Location/Type
Wed 02:34:57 PM -37.0090 174.7990 250° West 156 180 300  Level FlightAware ADS-B
Wed 02:35:07 PM -37.0070 174.8100 77° East 152 175 1,000 2,550 Climbing FlightAware ADS-B
Wed 02:35:37 PM -37.0200 174.8270 134° Southeast 171 197 2,000 1,527 Climbing FlightAware ADS-B
Wed 02:36:02 PM -37.0420 174.8260 182° South 214 246 2,400 1,067 Climbing FlightAware ADS-B
Wed 02:36:22 PM -37.0630 174.8220 189° South 248 285 2,800 1,733 Climbing FlightAware ADS-B
Wed 02:36:47 PM -37.0940 174.8180 186° South 272 313 3,700 2,743 Climbing FlightAware ADS-B
Wed 02:36:57 PM -37.1030 174.8170 185° South 275 316 4,400 3,750 Climbing FlightAware ADS-B
Wed 02:37:27 PM -37.1470 174.8110 186° South 277 319 6,200 3,300 Climbing FlightAware ADS-B
Wed 02:37:57 PM -37.1800 174.8000 195° South 282 325 7,700 2,900 Climbing FlightAware ADS-B
Wed 02:38:27 PM -37.2220 174.7840 197° South 293 337 9,100 2,400 Climbing FlightAware ADS-B
Wed 02:39:07 PM -37.2780 174.7640 196° South 321 369 10,500 1,650 Climbing FlightAware ADS-B
Wed 02:39:47 PM -37.3340 174.7440 196° South 364 419 11,300 2,047 Climbing FlightAware ADS-B
Wed 02:40:32 PM -37.4130 174.7160 196° South 367 422 13,400 2,533 Climbing FlightAware ADS-B
Wed 02:41:17 PM -37.4860 174.6890 196° South 375 432 15,100 2,118 Climbing FlightAware ADS-B
Wed 02:41:57 PM -37.5530 174.6650 196° South 385 443 16,400 2,025 Climbing FlightAware ADS-B
Wed 02:42:37 PM -37.6210 174.6400 196° South 390 449 17,800 1,976 Climbing FlightAware ADS-B
Wed 02:43:22 PM -37.7020 174.6110 196° South 397 457 19,200 1,906 Climbing FlightAware ADS-B
Wed 02:44:02 PM -37.7760 174.5840 196° South 405 466 20,500 1,650 Climbing FlightAware ADS-B
Wed 02:44:42 PM -37.8470 174.5570 197° South 414 476 21,400 1,412 Climbing FlightAware ADS-B
Wed 02:45:27 PM -37.9280 174.5270 196° South 421 484 22,500 1,412 Climbing FlightAware ADS-B
Wed 02:46:07 PM -38.0090 174.4980 196° South 430 495 23,400 1,275 Climbing FlightAware ADS-B
Wed 02:46:47 PM -38.0860 174.4700 196° South 438 504 24,200 1,482 Climbing FlightAware ADS-B
Wed 02:47:32 PM -38.1770 174.4360 196° South 440 506 25,500 1,624 Climbing FlightAware ADS-B
Wed 02:48:12 PM -38.2530 174.4080 196° South 442 509 26,500 1,341 Climbing FlightAware ADS-B
Wed 02:48:57 PM -38.3430 174.3740 197° South 447 514 27,400 1,059 Climbing FlightAware ADS-B
Wed 02:49:37 PM -38.4220 174.3450 196° South 456 525 28,000 900 Climbing FlightAware ADS-B
Wed 02:50:17 PM -38.5050 174.3140 196° South 464 534 28,600 1,200 Climbing FlightAware ADS-B
Wed 02:51:02 PM -38.5970 174.2790 197° South 462 532 29,700 1,341 Climbing FlightAware ADS-B
Wed 02:51:42 PM -38.6800 174.2480 196° South 462 532 30,500 988 Climbing FlightAware ADS-B
Wed 02:52:27 PM -38.7730 174.2130 196° South 469 540 31,100 1,271 Climbing FlightAware ADS-B
Wed 02:53:07 PM -38.8530 174.1830 196° South 456 525 32,300 1,200 Climbing FlightAware ADS-B
Wed 02:53:52 PM -38.9460 174.1480 196° South 463 533 32,800 918 Climbing FlightAware ADS-B
Wed 02:54:32 PM -39.0280 174.1170 196° South 462 532 33,600 1,129 Climbing FlightAware ADS-B
Wed 02:55:17 PM -39.1170 174.0830 197° South 458 527 34,400 918 Climbing FlightAware ADS-B
Wed 02:55:57 PM -39.2010 174.0510 196° South 462 532 34,900 825 Climbing FlightAware ADS-B
Wed 02:56:37 PM -39.2800 174.0210 196° South 461 531 35,500 825 Climbing FlightAware ADS-B
Wed 02:57:17 PM -39.3630 173.9890 197° South 446 513 36,000 353 Climbing FlightAware ADS-B
Wed 02:58:02 PM -39.4520 173.9550 196° South 451 519 36,000  Level FlightAware ADS-B
Wed 02:58:42 PM -39.5320 173.9240 197° South 457 526 36,000  Level FlightAware ADS-B
Wed 02:59:27 PM -39.6230 173.8890 197° South 455 524 36,000  Level FlightAware ADS-B
Wed 03:00:07 PM -39.7030 173.8580 197° South 455 524 36,000 71 Level FlightAware ADS-B
Wed 03:00:52 PM -39.7940 173.8230 196° South 453 521 36,100  Climbing FlightAware ADS-B
Wed 03:01:32 PM -39.8710 173.7920 197° South 451 519 36,000 -75 Descending FlightAware ADS-B
Wed 03:02:12 PM -39.9530 173.7610 196° South 450 518 36,000  Level FlightAware ADS-B
Wed 03:02:57 PM -40.0430 173.7260 197° South 452 520 36,000  Level FlightAware ADS-B
Wed 03:03:37 PM -40.1230 173.6940 197° South 453 521 36,000  Level FlightAware ADS-B
Wed 03:04:17 PM -40.2030 173.6630 196° South 452 520 36,000  Level FlightAware ADS-B
Wed 03:05:02 PM -40.2920 173.6280 197° South 436 502 36,000  Level FlightAware ADS-B
Wed 03:05:42 PM -40.3660 173.5990 197° South 416 479 36,000  Level FlightAware ADS-B
Wed 03:06:27 PM -40.4490 173.5650 197° South 417 480 36,000  Level FlightAware ADS-B
Wed 03:07:07 PM -40.5240 173.5360 196° South 419 482 36,000  Level FlightAware ADS-B
Wed 03:07:47 PM -40.5970 173.5070 197° South 421 484 36,000  Level FlightAware ADS-B
Wed 03:08:32 PM -40.6810 173.4740 197° South 423 487 36,000  Level FlightAware ADS-B
Wed 03:09:12 PM -40.7560 173.4430 197° South 424 488 36,000 71 Level FlightAware ADS-B
Wed 03:09:57 PM -40.8380 173.4100 197° South 422 486 36,100  Climbing FlightAware ADS-B
Wed 03:10:37 PM -40.9150 173.3790 197° South 421 484 36,000 -71 Descending FlightAware ADS-B
Wed 03:11:22 PM -40.9980 173.3460 197° South 417 480 36,000  Level FlightAware ADS-B
Wed 03:12:02 PM -41.0690 173.3170 197° South 415 478 36,000  Level FlightAware ADS-B
Wed 03:12:42 PM -41.1440 173.2870 197° South 413 475 36,000  Level FlightAware ADS-B
Wed 03:13:27 PM -41.2260 173.2540 197° South 412 474 36,000  Level FlightAware ADS-B
Wed 03:14:07 PM -41.2990 173.2240 197° South 413 475 36,000  Level FlightAware ADS-B
Wed 03:14:52 PM -41.3790 173.1920 197° South 414 476 36,000  Level FlightAware ADS-B
Wed 03:15:32 PM -41.4550 173.1640 195° South 415 478 36,000  Level FlightAware ADS-B
Wed 03:16:12 PM -41.5260 173.1360 196° South 416 479 36,000  Level FlightAware ADS-B
Wed 03:16:57 PM -41.6120 173.1030 196° South 419 482 36,000  Level FlightAware ADS-B
Wed 03:17:37 PM -41.6860 173.0740 196° South 420 483 36,000 -282 Level FlightAware ADS-B
Wed 03:18:22 PM -41.7690 173.0420 196° South 411 473 35,600 -1,412 Descending FlightAware ADS-B
Wed 03:19:02 PM -41.8420 173.0130 196° South 415 478 34,000 -2,612 Descending FlightAware ADS-B
Wed 03:19:47 PM -41.9260 172.9800 196° South 423 487 31,900 -2,682 Descending FlightAware ADS-B
Wed 03:20:27 PM -42.0010 172.9500 197° South 425 489 30,200 -2,325 Descending FlightAware ADS-B
Wed 03:21:07 PM -42.0750 172.9210 196° South 421 484 28,800 -2,100 Descending FlightAware ADS-B
Wed 03:21:47 PM -42.1460 172.8930 196° South 417 480 27,400 -1,875 Descending FlightAware ADS-B
Wed 03:22:27 PM -42.2220 172.8630 196° South 399 459 26,300 -1,624 Descending FlightAware ADS-B
Wed 03:23:12 PM -42.2950 172.8340 196° South 384 442 25,100 -1,667 Descending FlightAware ADS-B
Wed 03:23:57 PM -42.3630 172.8070 196° South 375 432 23,800 -1,835 Descending FlightAware ADS-B
Wed 03:24:37 PM -42.4370 172.7770 197° South 371 427 22,500 -1,835 Descending FlightAware ADS-B
Wed 03:25:22 PM -42.5070 172.7490 196° South 361 415 21,200 -1,624 Descending FlightAware ADS-B
Wed 03:26:02 PM -42.5710 172.7230 197° South 347 399 20,200 -1,650 Descending FlightAware ADS-B
Wed 03:26:42 PM -42.6330 172.6980 197° South 341 392 19,000 -1,412 Descending FlightAware ADS-B
Wed 03:27:27 PM -42.6970 172.6730 196° South 321 369 18,200 -847 Descending FlightAware ADS-B
Wed 03:28:07 PM -42.7520 172.6450 200° South 308 354 17,800 -655 Descending FlightAware ADS-B
Wed 03:28:22 PM -42.7670 172.6240 226° Southwest 298 343 17,600 -600 Descending FlightAware ADS-B
Wed 03:28:37 PM -42.7740 172.5970 251° West 287 330 17,500 -533 Descending FlightAware ADS-B
Wed 03:29:07 PM -42.7710 172.5480 275° West 277 319 17,200 -450 Descending FlightAware ADS-B
Wed 03:29:17 PM -42.7650 172.5320 297° West 275 316 17,200 -240 Level FlightAware ADS-B
Wed 03:29:32 PM -42.7520 172.5140 315° West 277 319 17,100 -400 Descending FlightAware ADS-B
Wed 03:29:47 PM -42.7360 172.5020 331° Northwest 283 326 17,000 -400 Descending FlightAware ADS-B
Wed 03:30:02 PM -42.7150 172.4960 348° North 290 334 16,900 -450 Descending FlightAware ADS-B
Wed 03:30:27 PM -42.6800 172.5070 13° North 293 337 16,700 -462 Descending FlightAware ADS-B
Wed 03:31:07 PM -42.6320 172.5290 19° North 294 338 16,400 -494 Descending FlightAware ADS-B
Wed 03:31:52 PM -42.5730 172.5560 19° North 295 339 16,000 -565 Descending FlightAware ADS-B
Wed 03:32:32 PM -42.5250 172.5770 18° North 290 334 15,600 -545 Descending FlightAware ADS-B
Wed 03:32:47 PM -42.5040 172.5920 28° Northeast 294 338 15,500 -400 Descending FlightAware ADS-B
Wed 03:33:02 PM -42.4910 172.6110 47° Northeast 298 343 15,400 -400 Descending FlightAware ADS-B
Wed 03:33:17 PM -42.4830 172.6390 69° East 298 343 15,300 -200 Descending FlightAware ADS-B
Wed 03:33:32 PM -42.4820 172.6660 87° East 295 339 15,300 -300 Level FlightAware ADS-B
Wed 03:33:57 PM -42.4960 172.7090 114° Southeast 286 329 15,100 -300 Descending FlightAware ADS-B
Wed 03:34:12 PM -42.5110 172.7260 140° Southeast 283 326 15,100 -200 Level FlightAware ADS-B
Wed 03:34:27 PM -42.5260 172.7350 156° South 276 318 15,000 -109 Descending FlightAware ADS-B
Wed 03:35:07 PM -42.5770 172.7270 187° South 257 296 15,000  Level FlightAware ADS-B
Wed 03:35:52 PM -42.6260 172.7050 198° South 256 295 15,000  Level FlightAware ADS-B
Wed 03:36:32 PM -42.6730 172.6850 197° South 259 298 15,000  Level FlightAware ADS-B
Wed 03:37:12 PM -42.7180 172.6650 198° South 255 293 15,000  Level FlightAware ADS-B
Wed 03:37:42 PM -42.7500 172.6440 206° Southwest 253 291 15,000  Level FlightAware ADS-B
Wed 03:37:57 PM -42.7600 172.6220 238° Southwest 256 295 15,000  Level FlightAware ADS-B
Wed 03:38:07 PM -42.7620 172.6080 259° West 260 299 15,000  Level FlightAware ADS-B
Wed 03:38:22 PM -42.7610 172.5850 273° West 262 302 15,000  Level FlightAware ADS-B
Wed 03:38:37 PM -42.7510 172.5630 302° West 260 299 15,000  Level FlightAware ADS-B
Wed 03:38:52 PM -42.7390 172.5500 321° Northwest 267 307 15,000  Level FlightAware ADS-B
Wed 03:39:07 PM -42.7180 172.5440 348° North 281 323 15,000  Level FlightAware ADS-B
Wed 03:39:47 PM -42.6660 172.5650 17° North 286 329 15,000  Level FlightAware ADS-B
Wed 03:40:27 PM -42.6160 172.5870 18° North 288 331 15,000  Level FlightAware ADS-B
Wed 03:41:12 PM -42.5600 172.6130 19° North 280 322 15,000  Level FlightAware ADS-B
Wed 03:41:27 PM -42.5430 172.6290 35° Northeast 294 338 15,000  Level FlightAware ADS-B
Wed 03:41:37 PM -42.5360 172.6450 59° Northeast 296 341 15,000  Level FlightAware ADS-B
Wed 03:41:52 PM -42.5330 172.6690 80° East 297 342 15,000  Level FlightAware ADS-B
Wed 03:42:07 PM -42.5400 172.6960 109° East 282 325 15,000  Level FlightAware ADS-B
Wed 03:42:22 PM -42.5510 172.7130 131° Southeast 278 320 15,000  Level FlightAware ADS-B
Wed 03:42:32 PM -42.5620 172.7210 152° Southeast 272 313 15,000  Level FlightAware ADS-B
Wed 03:42:47 PM -42.5860 172.7230 176° South 268 308 15,000  Level FlightAware ADS-B
Wed 03:43:02 PM -42.6030 172.7150 199° South 264 304 15,000  Level FlightAware ADS-B
Wed 03:43:47 PM -42.6550 172.6920 198° South 264 304 15,000  Level FlightAware ADS-B
Wed 03:44:27 PM -42.7010 172.6720 198° South 260 299 15,000  Level FlightAware ADS-B
Wed 03:45:07 PM -42.7440 172.6510 200° South 263 303 15,000  Level FlightAware ADS-B
Wed 03:45:22 PM -42.7570 172.6320 227° Southwest 261 300 15,000  Level FlightAware ADS-B
Wed 03:45:37 PM -42.7630 172.6060 253° West 267 307 15,000  Level FlightAware ADS-B
Wed 03:45:52 PM -42.7610 172.5810 276° West 270 311 15,000  Level FlightAware ADS-B
Wed 03:46:07 PM -42.7500 172.5590 304° West 267 307 15,000  Level FlightAware ADS-B
Wed 03:46:17 PM -42.7420 172.5500 320° Northwest 269 310 15,000  Level FlightAware ADS-B
Wed 03:46:32 PM -42.7230 172.5420 343° North 280 322 15,000  Level FlightAware ADS-B
Wed 03:47:02 PM -42.6840 172.5540 13° North 294 338 15,000  Level FlightAware ADS-B
Wed 03:47:42 PM -42.6370 172.5750 18° North 293 337 15,000  Level FlightAware ADS-B
Wed 03:48:22 PM -42.5830 172.5990 18° North 295 339 15,000  Level FlightAware ADS-B
Wed 03:48:52 PM -42.5440 172.6210 23° Northeast 295 339 15,000  Level FlightAware ADS-B
Wed 03:49:07 PM -42.5320 172.6450 56° Northeast 295 339 15,000  Level FlightAware ADS-B
Wed 03:49:17 PM -42.5290 172.6630 77° East 296 341 15,000  Level FlightAware ADS-B
Wed 03:49:47 PM -42.5420 172.7080 111° Southeast 279 321 15,000  Level FlightAware ADS-B
Wed 03:50:02 PM -42.5580 172.7220 147° Southeast 271 312 15,000  Level FlightAware ADS-B
Wed 03:50:12 PM -42.5730 172.7250 172° South 271 312 15,000  Level FlightAware ADS-B
Wed 03:50:57 PM -42.6260 172.7050 196° South 261 300 15,000  Level FlightAware ADS-B
Wed 03:51:42 PM -42.6760 172.6830 198° South 262 302 15,000  Level FlightAware ADS-B
Wed 03:52:27 PM -42.7280 172.6600 198° South 263 303 15,000  Level FlightAware ADS-B
Wed 03:52:52 PM -42.7540 172.6390 211° Southwest 260 299 15,000  Level FlightAware ADS-B
Wed 03:53:07 PM -42.7620 172.6150 246° West 261 300 15,000  Level FlightAware ADS-B
Wed 03:53:22 PM -42.7700 172.5940 243° Southwest 261 300 15,000  Level FlightAware ADS-B
Wed 03:53:37 PM -42.7840 172.5780 220° Southwest 267 307 15,000  Level FlightAware ADS-B
Wed 03:53:47 PM -42.7970 172.5730 196° South 268 308 15,000  Level FlightAware ADS-B
Wed 03:54:32 PM -42.8500 172.5620 189° South 262 302 15,000  Level FlightAware ADS-B
Wed 03:55:12 PM -42.8990 172.5520 189° South 262 302 15,000  Level FlightAware ADS-B
Wed 03:55:57 PM -42.9520 172.5420 188° South 261 300 15,000  Level FlightAware ADS-B
Wed 03:56:37 PM -43.0010 172.5320 188° South 262 302 15,000  Level FlightAware ADS-B
Wed 03:57:17 PM -43.0480 172.5230 188° South 262 302 15,000  Level FlightAware ADS-B
Wed 03:57:57 PM -43.0970 172.5150 187° South 263 303 15,000  Level FlightAware ADS-B
Wed 03:58:27 PM -43.1340 172.5120 183° South 259 298 15,000  Level FlightAware ADS-B
Wed 03:58:42 PM -43.1470 172.4990 216° Southwest 256 295 15,000  Level FlightAware ADS-B
Wed 03:58:52 PM -43.1530 172.4850 240° Southwest 258 297 15,000  Level FlightAware ADS-B
Wed 03:59:02 PM -43.1550 172.4680 261° West 260 299 15,000  Level FlightAware ADS-B
Wed 03:59:27 PM -43.1450 172.4300 290° West 272 313 15,000  Level FlightAware ADS-B
Wed 03:59:37 PM -43.1350 172.4180 319° Northwest 279 321 15,000  Level FlightAware ADS-B
Wed 04:00:22 PM -43.0890 172.3800 329° Northwest 280 322 15,000  Level FlightAware ADS-B
Wed 04:01:02 PM -43.0410 172.3390 328° Northwest 279 321 15,000  Level FlightAware ADS-B
Wed 04:01:17 PM -43.0260 172.3290 334° Northwest 284 327 15,000  Level FlightAware ADS-B
Wed 04:01:27 PM -43.0130 172.3260 350° North 291 335 15,000  Level FlightAware ADS-B
Wed 04:01:57 PM -42.9770 172.3480 24° Northeast 299 344 15,000  Level FlightAware ADS-B
Wed 04:02:12 PM -42.9670 172.3770 65° Northeast 295 339 15,000  Level FlightAware ADS-B
Wed 04:02:42 PM -42.9780 172.4280 106° East 279 321 15,000  Level FlightAware ADS-B
Wed 04:02:52 PM -42.9870 172.4380 141° Southeast 275 316 15,000  Level FlightAware ADS-B
Wed 04:03:32 PM -43.0300 172.4750 148° Southeast 274 315 15,000  Level FlightAware ADS-B
Wed 04:04:12 PM -43.0740 172.5120 148° Southeast 273 314 15,000  Level FlightAware ADS-B
Wed 04:04:47 PM -43.1130 172.5320 159° South 264 304 15,000  Level FlightAware ADS-B
Wed 04:05:02 PM -43.1310 172.5250 196° South 259 298 15,000  Level FlightAware ADS-B
Wed 04:05:12 PM -43.1410 172.5160 213° Southwest 259 298 15,000  Level FlightAware ADS-B
Wed 04:05:27 PM -43.1510 172.4970 234° Southwest 258 297 15,000  Level FlightAware ADS-B
Wed 04:05:42 PM -43.1560 172.4730 254° West 261 300 15,000  Level FlightAware ADS-B
Wed 04:05:57 PM -43.1540 172.4520 277° West 266 306 15,000  Level FlightAware ADS-B
Wed 04:06:12 PM -43.1440 172.4260 298° West 273 314 15,000  Level FlightAware ADS-B
Wed 04:06:27 PM -43.1290 172.4100 322° Northwest 279 321 15,000  Level FlightAware ADS-B
Wed 04:07:07 PM -43.0840 172.3730 329° Northwest 278 320 15,000  Level FlightAware ADS-B
Wed 04:07:47 PM -43.0410 172.3370 329° Northwest 279 321 15,000  Level FlightAware ADS-B
Wed 04:08:02 PM -43.0220 172.3250 335° Northwest 285 328 15,000  Level FlightAware ADS-B
Wed 04:08:12 PM -43.0100 172.3230 353° North 291 335 15,000  Level FlightAware ADS-B
Wed 04:08:32 PM -42.9840 172.3360 20° North 297 342 15,000 857 Level FlightAware ADS-B
Wed 04:08:47 PM -42.9710 172.3580 51° Northeast 296 341 15,500 1,418 Climbing FlightAware ADS-B
Wed 04:09:27 PM -42.9430 172.4290 62° Northeast 336 387 16,300 1,800 Climbing FlightAware ADS-B
Wed 04:10:07 PM -42.9100 172.5040 59° Northeast 346 398 17,900 2,471 Climbing FlightAware ADS-B
Wed 04:10:52 PM -42.8630 172.5780 49° Northeast 351 404 19,800 2,329 Climbing FlightAware ADS-B
Wed 04:11:32 PM -42.8200 172.6460 49° Northeast 359 413 21,200 2,047 Climbing FlightAware ADS-B
Wed 04:12:17 PM -42.7710 172.7240 49° Northeast 365 420 22,700 1,271 Climbing FlightAware ADS-B
Wed 04:12:57 PM -42.7310 172.7880 50° Northeast 366 421 23,000 225 Climbing FlightAware ADS-B
Wed 04:13:37 PM -42.6830 172.8650 50° Northeast 368 423 23,000  Level FlightAware ADS-B
Wed 04:14:22 PM -42.6350 172.9410 49° Northeast 368 423 23,000  Level FlightAware ADS-B
Wed 04:15:02 PM -42.5890 173.0130 49° Northeast 368 423 23,000  Level FlightAware ADS-B
Wed 04:15:42 PM -42.5450 173.0810 49° Northeast 367 422 23,000  Level FlightAware ADS-B
Wed 04:16:27 PM -42.4940 173.1610 49° Northeast 368 423 23,000  Level FlightAware ADS-B
Wed 04:17:07 PM -42.4530 173.2270 50° Northeast 366 421 23,000  Level FlightAware ADS-B
Wed 04:17:47 PM -42.4060 173.3000 49° Northeast 365 420 23,000 -71 Level FlightAware ADS-B
Wed 04:18:32 PM -42.3570 173.3770 49° Northeast 365 420 22,900 -565 Descending FlightAware ADS-B
Wed 04:19:12 PM -42.3120 173.4460 49° Northeast 362 417 22,200 -1,129 Descending FlightAware ADS-B
Wed 04:19:57 PM -42.2640 173.5200 49° Northeast 349 402 21,300 -1,341 Descending FlightAware ADS-B
Wed 04:20:37 PM -42.2220 173.5850 49° Northeast 340 391 20,300 -1,500 Descending FlightAware ADS-B
Wed 04:21:17 PM -42.1810 173.6490 49° Northeast 334 384 19,300 -1,412 Descending FlightAware ADS-B
Wed 04:22:02 PM -42.1360 173.7190 49° Northeast 328 377 18,300 -1,400 Descending FlightAware ADS-B
Wed 04:22:47 PM -42.0920 173.7860 49° Northeast 321 369 17,200 -1,412 Descending FlightAware ADS-B
Wed 04:23:27 PM -42.0530 173.8470 49° Northeast 315 362 16,300 -1,280 Descending FlightAware ADS-B
Wed 04:24:02 PM -42.0210 173.8950 48° Northeast 319 367 15,600 -900 Descending FlightAware ADS-B
Wed 04:24:47 PM -41.9760 173.9620 48° Northeast 321 369 15,100 -1,520 Descending FlightAware ADS-B
Wed 04:25:47 PM -41.9150 174.0570 49° Northeast 12,800 -1,886 Descending FlightAware ADS-B
Wed 04:26:32 PM -41.8720 174.1230 49° Northeast 302 348 11,800 -1,341 Descending FlightAware ADS-B
Wed 04:27:12 PM -41.8340 174.1750 46° Northeast 296 341 10,900 -1,360 Descending FlightAware ADS-B
Wed 04:27:47 PM -41.7950 174.2130 36° Northeast 301 346 10,100 -1,271 Descending FlightAware ADS-B
Wed 04:28:37 PM -41.7390 174.2670 36° Northeast 280 322 9,100 -1,300 Descending FlightAware ADS-B
Wed 04:28:47 PM -41.7290 174.2780 39° Northeast 283 326 8,800 -1,650 Descending FlightAware ADS-B
Wed 04:29:17 PM -41.7010 174.3160 45° Northeast 285 328 8,000 -1,418 Descending FlightAware ADS-B
Wed 04:29:42 PM -41.6760 174.3490 45° Northeast 285 328 7,500 -1,309 Descending FlightAware ADS-B
Wed 04:30:12 PM -41.6470 174.3880 45° Northeast 280 322 6,800 -1,400 Descending FlightAware ADS-B
Wed 04:30:42 PM -41.6190 174.4240 44° Northeast 280 322 6,100 -1,333 Descending FlightAware ADS-B
Wed 04:30:57 PM -41.6070 174.4410 47° Northeast 276 318 5,800 -1,200 Descending FlightAware ADS-B
Wed 04:31:22 PM -41.5840 174.4710 44° Northeast 272 313 5,300 -1,050 Descending FlightAware ADS-B
Wed 04:31:37 PM -41.5700 174.4900 45° Northeast 258 297 5,100 -667 Descending FlightAware ADS-B
Wed 04:32:07 PM -41.5470 174.5220 46° Northeast 248 285 4,800 -533 Descending FlightAware ADS-B
Wed 04:32:22 PM -41.5340 174.5380 43° Northeast 234 269 4,700 -750 Descending FlightAware ADS-B
Wed 04:32:47 PM -41.5150 174.5630 45° Northeast 229 264 4,300 -982 Descending FlightAware ADS-B
Wed 04:33:17 PM -41.4930 174.5960 48° Northeast 234 269 3,800 -667 Descending FlightAware ADS-B
Wed 04:33:32 PM -41.4900 174.6200 81° East 256 295 3,800 -450 Level FlightAware ADS-B
Wed 04:33:57 PM -41.4920 174.6550 94° East 252 290 3,500 -655 Descending FlightAware ADS-B
Wed 04:34:27 PM -41.4950 174.7030 95° East 236 272 3,200 -545 Descending FlightAware ADS-B
Wed 04:34:52 PM -41.4960 174.7390 92° East 219 252 3,000 -450 Descending FlightAware ADS-B
Wed 04:35:07 PM -41.4970 174.7590 94° East 212 244 2,900 -600 Descending FlightAware ADS-B
Wed 04:35:32 PM -41.4900 174.7850 70° East 2,700 -667 Descending FlightAware ADS-B
Wed 04:35:52 PM -41.4760 174.7960 30° Northeast 153 176 2,400 -600 Descending FlightAware ADS-B
Wed 04:36:12 PM -41.4610 174.7980 North 146 168 2,300 -545 Descending FlightAware ADS-B
Wed 04:36:47 PM -41.4370 174.7990 North 132 152 1,900 -700 Descending FlightAware ADS-B
Wed 04:37:12 PM -41.4230 174.8000 North 125 144 1,600 -533 Descending FlightAware ADS-B
Wed 04:37:32 PM -41.4140 174.8010 North 121 139 1,500 -400 Descending FlightAware ADS-B
Wed 04:38:12 PM -41.3900 174.8020 North 117 135 1,200 -750 Descending FlightAware ADS-B
Wed 04:38:52 PM -41.3670 174.8040 North 124 143 500 -960 Descending FlightAware ADS-B
Wed 04:39:02 PM -41.3600 174.8050 North 124 143 400 -600 Descending FlightAware ADS-B
Wed 04:39:32 PM -41.3420 174.8060 North 116 133 100  Descending FlightAware ADS-B
Wed 04:42:00 PM -41.3789 174.7538 217° Southwest  Level Estimated
Wed 04:43:00 PM -41.4058 174.7266 217° Southwest  Level Estimated
Wed 04:46:00 PM -41.3764 174.7602 217° Southwest  Level Estimated
Wed 04:47:00 PM -41.4033 174.7331 217° Southwest  Level Estimated
Wed 04:48:00 PM -41.4301 174.7059 217° Southwest  Level Estimated
Wed 04:49:00 PM -41.4570 174.6787 217° Southwest  Level Estimated
Wed 04:50:00 PM -41.4838 174.6515 217° Southwest  Level Estimated
Wed 04:51:00 PM -41.5107 174.6243 217° Southwest  Level Estimated
Wed 04:52:00 PM -41.5375 174.5970 217° Southwest  Level Estimated
Wed 04:53:00 PM -41.5643 174.5698 217° Southwest  Level Estimated
Wed 04:54:00 PM -41.5911 174.5425 217° Southwest  Level Estimated
Wed 04:55:00 PM -41.6180 174.5152 217° Southwest  Level Estimated
Wed 04:56:00 PM -41.6448 174.4878 217° Southwest  Level Estimated
Wed 04:57:00 PM -41.6691 174.4630 217° Southwest  Level Estimated
Wed 04:58:00 PM -41.6935 174.4381 217° Southwest  Level Estimated
Wed 04:59:00 PM -41.7178 174.4132 217° Southwest  Level Estimated
Wed 05:00:00 PM -41.7422 174.3882 217° Southwest  Level Estimated
Wed 05:01:00 PM -41.7649 174.3649 217° Southwest  Level Estimated
Wed 05:02:00 PM -41.7877 174.3416 217° Southwest  Level Estimated
Wed 05:03:00 PM -41.8105 174.3182 217° Southwest  Level Estimated
Wed 05:04:00 PM -41.8332 174.2948 217° Southwest  Level Estimated
Wed 05:05:00 PM -41.8560 174.2714 217° Southwest  Level Estimated
Wed 05:06:00 PM -41.8787 174.2480 217° Southwest  Level Estimated
Wed 05:07:00 PM -41.9015 174.2245 217° Southwest  Level Estimated
Wed 05:08:00 PM -41.9242 174.2011 218° Southwest  Level Estimated
Wed 05:09:00 PM -41.9470 174.1776 218° Southwest  Level Estimated
Wed 05:10:00 PM -41.9697 174.1541 218° Southwest  Level Estimated
Wed 05:11:00 PM -41.9924 174.1306 218° Southwest  Level Estimated
Wed 05:12:00 PM -42.0152 174.1071 218° Southwest  Level Estimated
Wed 05:13:00 PM -42.0379 174.0835 218° Southwest  Level Estimated
Wed 05:14:00 PM -42.0606 174.0600 218° Southwest  Level Estimated
Wed 05:15:00 PM -42.0833 174.0364 218° Southwest  Level Estimated
Wed 05:16:00 PM -42.1060 174.0128 218° Southwest  Level Estimated
Wed 05:17:00 PM -42.1287 173.9892 218° Southwest  Level Estimated
Wed 05:18:00 PM -42.1514 173.9656 218° Southwest  Level Estimated
Wed 05:19:00 PM -42.1741 173.9419 218° Southwest  Level Estimated
Wed 05:20:00 PM -42.1968 173.9183 218° Southwest  Level Estimated
Wed 05:21:00 PM -42.2194 173.8946 218° Southwest  Level Estimated
Wed 05:22:00 PM -42.2421 173.8709 218° Southwest  Level Estimated
Wed 05:23:00 PM -42.2648 173.8472 218° Southwest  Level Estimated
Wed 05:24:00 PM -42.2874 173.8235 218° Southwest  Level Estimated
Wed 05:25:00 PM -42.3101 173.7997 218° Southwest  Level Estimated
Wed 05:26:00 PM -42.3327 173.7760 218° Southwest  Level Estimated
Wed 05:27:00 PM -42.3554 173.7522 218° Southwest  Level Estimated
Wed 05:28:00 PM -42.3741 173.7326 218° Southwest  Level Estimated
Wed 05:29:00 PM -42.3927 173.7130 218° Southwest  Level Estimated
Wed 05:30:00 PM -42.4114 173.6933 218° Southwest  Level Estimated
Wed 05:31:00 PM -42.4300 173.6737 218° Southwest  Level Estimated
Wed 05:32:00 PM -42.4487 173.6540 218° Southwest  Level Estimated
Wed 05:33:00 PM -42.4673 173.6344 218° Southwest  Level Estimated
Wed 05:34:00 PM -42.4859 173.6147 218° Southwest  Level Estimated
Wed 05:35:00 PM -42.5046 173.5950 218° Southwest  Level Estimated
Wed 05:36:00 PM -42.5232 173.5753 218° Southwest  Level Estimated
Wed 05:37:00 PM -42.5418 173.5556 218° Southwest  Level Estimated
Wed 05:38:00 PM -42.5604 173.5359 218° Southwest  Level Estimated
Wed 05:39:00 PM -42.5791 173.5162 218° Southwest  Level Estimated
Wed 05:40:00 PM -42.5977 173.4964 218° Southwest  Level Estimated
Wed 05:41:00 PM -42.6163 173.4767 218° Southwest  Level Estimated
Wed 05:42:00 PM -42.6349 173.4569 218° Southwest  Level Estimated
Wed 05:43:00 PM -42.6535 173.4371 218° Southwest  Level Estimated
Wed 05:44:00 PM -42.6721 173.4173 218° Southwest  Level Estimated
Wed 05:45:00 PM -42.6907 173.3975 218° Southwest  Level Estimated
Wed 05:46:00 PM -42.7093 173.3777 218° Southwest  Level Estimated
Wed 05:47:00 PM -42.7279 173.3579 218° Southwest  Level Estimated
Wed 05:48:00 PM -42.7465 173.3380 218° Southwest  Level Estimated
Wed 05:49:00 PM -42.7651 173.3182 218° Southwest  Level Estimated
Wed 05:50:00 PM -42.7837 173.2983 218° Southwest  Level Estimated
Wed 05:51:00 PM -42.8022 173.2784 218° Southwest  Level Estimated
Wed 05:52:00 PM -42.8208 173.2585 218° Southwest  Level Estimated
Wed 05:53:00 PM -42.8394 173.2386 218° Southwest  Level Estimated
Wed 05:54:00 PM -42.8580 173.2187 218° Southwest  Level Estimated
Wed 05:55:00 PM -42.8765 173.1988 218° Southwest  Level Estimated
Wed 05:56:00 PM -42.8951 173.1789 218° Southwest  Level Estimated
Wed 05:57:00 PM -42.9130 173.1596 218° Southwest  Level Estimated
Wed 05:58:00 PM -42.9310 173.1403 218° Southwest  Level Estimated
Wed 05:59:00 PM -42.9489 173.1210 218° Southwest  Level Estimated
Wed 06:00:00 PM -42.9668 173.1017 218° Southwest  Level Estimated
Wed 06:01:00 PM -42.9847 173.0824 218° Southwest  Level Estimated
Wed 06:02:00 PM -43.0026 173.0631 218° Southwest  Level Estimated
Wed 06:03:00 PM -43.0205 173.0437 218° Southwest  Level Estimated
Wed 06:04:00 PM -43.0384 173.0244 218° Southwest  Level Estimated
Wed 06:05:00 PM -43.0563 173.0050 218° Southwest  Level Estimated
Wed 06:06:00 PM -43.0742 172.9857 218° Southwest  Level Estimated
Wed 06:07:00 PM -43.0921 172.9663 218° Southwest  Level Estimated
Wed 06:08:00 PM -43.1100 172.9469 218° Southwest  Level Estimated
Wed 06:09:00 PM -43.1279 172.9275 218° Southwest  Level Estimated
Wed 06:10:00 PM -43.1458 172.9081 218° Southwest  Level Estimated
Wed 06:11:00 PM -43.1637 172.8887 218° Southwest  Level Estimated
Wed 06:12:00 PM -43.1816 172.8692 218° Southwest  Level Estimated
Wed 06:13:00 PM -43.1995 172.8498 218° Southwest  Level Estimated
Wed 06:14:00 PM -43.2173 172.8303 218° Southwest  Level Estimated
Wed 06:15:00 PM -43.2352 172.8108 218° Southwest  Level Estimated
Wed 06:16:00 PM -43.2531 172.7914 218° Southwest  Level Estimated
Wed 06:17:00 PM -43.2709 172.7719 218° Southwest  Level Estimated
Wed 06:18:00 PM -43.2888 172.7523 218° Southwest  Level Estimated
Wed 06:19:00 PM -43.3066 172.7328 218° Southwest  Level Estimated
Wed 06:20:00 PM -43.3245 172.7133 219° Southwest  Level Estimated
Wed 06:21:00 PM -43.3423 172.6938 219° Southwest  Level Estimated
Wed 06:22:00 PM -43.3602 172.6742 219° Southwest  Level Estimated
Wed 06:23:00 PM -43.3780 172.6546 219° Southwest  Level Estimated
Wed 06:24:00 PM -43.3959 172.6351 219° Southwest  Level Estimated
Wed 06:25:00 PM -43.4137 172.6155 219° Southwest  Level Estimated
Wed 06:26:00 PM -43.4315 172.5959 219° Southwest  Level Estimated
Wed 06:27:00 PM -43.4482 172.5775 219° Southwest  Level Estimated
Wed 06:28:00 PM -43.4649 172.5591 219° Southwest  Level Estimated
Wed 06:29:00 PM -43.4816 172.5408 219° Southwest  Level Estimated
Wed 06:30:00 PM -43.4894 172.5322 219° Southwest  Level Estimated
Wed 06:31:00 PM -43.4894 172.5322 299° West  Level Estimated
Wed 06:32:00 PM -43.4894 172.5322 299° West  Level Estimated
Wed 06:33:00 PM -43.4894 172.5322 299° West  Level Estimated
Wed 06:34:00 PM -43.4894 172.5322 299° West  Level Estimated
Wed 06:35:00 PM -43.4894 172.5322 299° West  Level Estimated
Wed 06:36:00 PM -43.4894 172.5322 299° West  Level Estimated
Wed 06:37:00 PM -43.4894 172.5322 299° West  Level Estimated
Wed 06:38:00 PM -43.4894 172.5322 299° West  Level Estimated
Wed 06:39:00 PM -43.4894 172.5322 299° West  Level Estimated
Wed 06:40:00 PM -43.4894 172.5322 299° West  Level Estimated
Wed 06:41:00 PM -43.4894 172.5322 299° West  Level Estimated
Wed 06:42:00 PM -43.4894 172.5322 299° West  Level Estimated
Wed 06:43:00 PM -43.4894 172.5322 299° West  Level Estimated
Wed 06:44:00 PM -43.4894 172.5322 299° West  Level Estimated
Wed 06:45:00 PM -43.4894 172.5322 299° West  Level Estimated
Wed 06:46:00 PM -43.4894 172.5322 299° West  Level Estimated
Wed 06:47:00 PM -43.4894 172.5322 299° West  Level Estimated
Wed 06:48:00 PM -43.4894 172.5322 299° West  Level Estimated
Wed 06:49:00 PM -43.4894 172.5322 299° West  Level Estimated
Wed 06:50:00 PM -43.4894 172.5322 299° West  Level Estimated
Wed 06:51:00 PM -43.4894 172.5322 299° West  Level Estimated
Wed 06:52:00 PM -43.4894 172.5322 299° West  Level Estimated
Wed 06:53:00 PM -43.4894 172.5322 299° West  Level Estimated
Wed 06:54:00 PM -43.4894 172.5322 299° West  Level Estimated
Wed 06:55:00 PM -43.4894 172.5322 299° West  Level Estimated
Wed 06:56:00 PM -43.4894 172.5322 299° West  Level Estimated
Wed 06:57:00 PM -43.4894 172.5322 299° West  Level Estimated
Wed 06:58:00 PM -43.4894 172.5322 299° West  Level Estimated
Wed 06:59:00 PM -43.4894 172.5322 299° West  Level Estimated
Wed 07:00:00 PM -43.4894 172.5322 299° West  Level Estimated
Wed 07:01:00 PM -43.4894 172.5322 299° West  Level Estimated
Wed 07:02:00 PM -43.4894 172.5322 299° West  Level Estimated
Wed 07:03:00 PM -43.4894 172.5322 299° West  Level Estimated
Wed 07:04:00 PM -43.4894 172.5322 299° West  Level Estimated
Wed 07:05:00 PM -43.4894 172.5322 299° West  Level Estimated
Wed 07:06:00 PM -43.4894 172.5322 299° West  Level Estimated
Wed 07:07:00 PM -43.4894 172.5322 299° West  Level Estimated
Wed 07:08:00 PM -43.4894 172.5322 299° West  Level Estimated
Wed 07:09:00 PM -43.4894 172.5322 299° West  Level Estimated
Wed 07:10:00 PM -43.4894 172.5322 299° West  Level Estimated
Wed 07:11:00 PM -43.4894 172.5322 299° West  Level Estimated
Wed 07:12:00 PM -43.4894 172.5322 299° West  Level Estimated
Wed 07:13:00 PM -43.4894 172.5322 299° West  Level Estimated
Wed 07:14:00 PM -43.4894 172.5322 299° West  Level Estimated
Wed 07:15:00 PM -43.4894 172.5322 299° West  Level Estimated
Wed 07:16:00 PM -43.4894 172.5322 299° West  Level Estimated
Wed 07:17:00 PM -43.4894 172.5322 299° West  Level Estimated
Wed 07:18:00 PM -43.4894 172.5322 299° West  Level Estimated
Wed 07:19:00 PM -43.4894 172.5322 299° West  Level Estimated
Wed 07:20:00 PM -43.4894 172.5322 299° West  Level Estimated
Wed 07:21:00 PM -43.4894 172.5322 299° West  Level Estimated
Wed 07:22:00 PM -43.4894 172.5322 299° West  Level Estimated
Wed 07:23:00 PM -43.4894 172.5322 299° West  Level Estimated
Wed 07:24:00 PM -43.4894 172.5322 299° West  Level Estimated
Wed 07:25:00 PM -43.4894 172.5322 299° West  Level Estimated
Wed 07:26:00 PM -43.4894 172.5322 299° West  Level Estimated
Wed 07:27:00 PM -43.4894 172.5322 299° West  Level Estimated
Wed 07:28:00 PM -43.4894 172.5322 299° West  Level Estimated
Wed 07:29:00 PM -43.4894 172.5322 299° West  Level Estimated
Wed 07:30:00 PM -43.4894 172.5322 299° West  Level Estimated
Wed 07:31:00 PM -43.4894 172.5322 299° West  Level Estimated
Wed 07:32:00 PM -43.4894 172.5322 299° West  Level Estimated
Wed 07:33:00 PM -43.4894 172.5322 299° West  Level Estimated
Wed 07:34:00 PM -43.4894 172.5322 299° West  Level Estimated
Wed 07:35:00 PM -43.4894 172.5322 299° West  Level Estimated
Wed 07:36:00 PM -43.4894 172.5322 299° West  Level Estimated
Wed 07:37:00 PM -43.4894 172.5322 299° West  Level Estimated
Wed 07:38:00 PM -43.4894 172.5322 299° West  Level Estimated
Wed 07:39:00 PM -43.4894 172.5322 299° West  Level Estimated
Wed 07:40:00 PM -43.4894 172.5322 299° West  Level Estimated
Wed 07:41:00 PM -43.4894 172.5322 299° West  Level Estimated
Wed 07:42:00 PM -43.4894 172.5322 299° West  Level Estimated
Wed 07:43:00 PM -43.4894 172.5322 299° West  Level Estimated
Wed 07:44:00 PM -43.4894 172.5322 299° West  Level Estimated
Wed 07:45:00 PM -43.4894 172.5322 299° West  Level Estimated
Wed 07:46:00 PM -43.4894 172.5322 299° West  Level Estimated
Wed 07:47:00 PM -43.4894 172.5322 299° West  Level Estimated
Wed 07:48:00 PM -43.4894 172.5322 299° West  Level Estimated
Wed 07:49:00 PM -43.4894 172.5322 299° West  Level Estimated
Wed 07:50:00 PM -43.4894 172.5322 299° West  Level Estimated
Wed 07:51:00 PM -43.4894 172.5322 299° West  Level Estimated
Wed 07:52:00 PM -43.4894 172.5322 299° West  Level Estimated
Wed 07:53:00 PM -43.4894 172.5322 299° West  Level Estimated
Wed 07:54:00 PM -43.4894 172.5322 299° West  Level Estimated
Wed 07:55:00 PM -43.4894 172.5322 299° West  Level Estimated
Wed 07:56:00 PM -43.4894 172.5322 299° West  Level Estimated
Wed 07:57:00 PM -43.4894 172.5322 299° West  Level Estimated
Wed 07:58:00 PM -43.4894 172.5322 299° West  Level Estimated
Wed 07:59:00 PM -43.4894 172.5322 299° West  Level Estimated
Wed 08:00:00 PM -43.4894 172.5322 299° West  Level Estimated
Wed 08:01:00 PM -43.4894 172.5322 299° West  Level Estimated
Wed 08:02:00 PM -43.4894 172.5322 299° West  Level Estimated
Wed 08:03:00 PM -43.4894 172.5322 299° West  Level Estimated
Wed 08:04:00 PM -43.4894 172.5322 299° West  Level Estimated
Wed 08:05:00 PM -43.4894 172.5322 299° West  Level Estimated
Wed 08:06:00 PM -43.4894 172.5322 299° West  Level Estimated
Wed 08:07:00 PM -43.4894 172.5322 299° West  Level Estimated
Wed 08:08:00 PM -43.4894 172.5322 299° West  Level Estimated
Wed 08:09:00 PM -43.4894 172.5322 299° West  Level Estimated
Wed 08:10:00 PM -43.4894 172.5322 299° West  Level Estimated
Wed 08:11:00 PM -43.4894 172.5322 299° West  Level Estimated
Wed 08:12:00 PM -43.4894 172.5322 299° West  Level Estimated
Wed 08:13:00 PM -43.4894 172.5322 299° West  Level Estimated
Wed 08:14:00 PM -43.4894 172.5322 299° West  Level Estimated
Wed 08:15:00 PM -43.4894 172.5322 299° West  Level Estimated
Wed 08:16:00 PM -43.4894 172.5322 299° West  Level Estimated
Wed 08:17:00 PM -43.4894 172.5322 299° West  Level Estimated
Wed 08:18:00 PM -43.4894 172.5322 299° West  Level Estimated
Wed 08:19:00 PM -43.4894 172.5322 299° West  Level Estimated
Wed 08:20:00 PM -43.4894 172.5322 299° West  Level Estimated
Wed 08:21:00 PM -43.4894 172.5322 299° West  Level Estimated
Wed 08:22:00 PM -43.4894 172.5322 299° West  Level Estimated
Wed 08:23:00 PM -43.4894 172.5322 299° West  Level Estimated
Wed 08:24:00 PM -43.4894 172.5322 299° West  Level Estimated
Wed 08:25:00 PM -43.4894 172.5322 299° West  Level Estimated
Wed 08:26:00 PM -43.4894 172.5322 299° West  Level Estimated
Wed 08:27:00 PM -43.4894 172.5322 299° West  Level Estimated
Wed 08:28:00 PM -43.4894 172.5322 299° West  Level Estimated
Wed 08:29:00 PM -43.4894 172.5322 299° West  Level Estimated
Wed 08:30:00 PM -43.4894 172.5322 299° West  Level Estimated
Wed 08:31:00 PM -43.4894 172.5322 299° West  Level Estimated
Wed 08:32:00 PM -43.4894 172.5322 299° West  Level Estimated
Wed 08:33:00 PM -43.4894 172.5322 299° West  Level Estimated
Wed 08:34:00 PM -43.4894 172.5322 299° West  Level Estimated
Wed 08:35:00 PM -43.4894 172.5322 299° West  Level Estimated
Wed 08:36:00 PM -43.4894 172.5322 299° West  Level Estimated
Wed 08:37:00 PM -43.4894 172.5322 299° West  Level Estimated
Wed 08:38:00 PM -43.4894 172.5322 299° West  Level Estimated
Wed 08:39:00 PM -43.4894 172.5322 299° West  Level Estimated
Wed 08:40:00 PM -43.4894 172.5322 299° West  Level Estimated
Wed 08:41:00 PM -43.4894 172.5322 299° West  Level Estimated
Wed 08:42:00 PM -43.4894 172.5322 299° West  Level Estimated
Wed 08:43:00 PM -43.4894 172.5322 299° West  Level Estimated
Wed 08:44:00 PM -43.4894 172.5322 299° West  Level Estimated
Wed 08:45:00 PM -43.4894 172.5322 299° West  Level Estimated
Wed 08:46:00 PM -43.4894 172.5322 299° West  Level Estimated
Wed 08:47:00 PM -43.4894 172.5322 299° West  Level Estimated
Wed 08:48:00 PM -43.4894 172.5322 299° West  Level Estimated
Wed 08:49:00 PM -43.4894 172.5322 299° West  Level Estimated
Wed 08:50:00 PM -43.4894 172.5322 299° West  Level Estimated
Wed 08:51:00 PM -43.4894 172.5322 299° West  Level Estimated
Wed 08:52:00 PM -43.4894 172.5322 299° West  Level Estimated
Wed 08:53:00 PM -43.4894 172.5322 299° West  Level Estimated
Wed 08:54:00 PM -43.4894 172.5322 299° West  Level Estimated
Wed 08:55:00 PM -43.4894 172.5322 299° West  Level Estimated
Wed 08:56:00 PM -43.4894 172.5322 299° West  Level Estimated
Wed 08:57:00 PM -43.4894 172.5322 299° West  Level Estimated
Wed 08:58:00 PM -43.4894 172.5322 299° West  Level Estimated
Wed 08:59:00 PM -43.4894 172.5322 299° West  Level Estimated
Wed 09:00:00 PM -43.4894 172.5322 299° West  Level Estimated
Wed 09:01:00 PM -43.4894 172.5322 299° West  Level Estimated
Wed 09:02:00 PM -43.4894 172.5322 299° West  Level Estimated
Wed 09:03:00 PM -43.4894 172.5322 299° West  Level Estimated
Wed 09:04:00 PM -43.4894 172.5322 299° West  Level Estimated
Wed 09:05:00 PM -43.4894 172.5322 299° West  Level Estimated
Wed 09:06:00 PM -43.4894 172.5322 299° West  Level Estimated
Wed 09:07:00 PM -43.4894 172.5322 299° West  Level Estimated
Wed 09:08:00 PM -43.4894 172.5322 299° West  Level Estimated
Wed 09:09:00 PM -43.4894 172.5322 299° West  Level Estimated
Wed 09:10:00 PM -43.4894 172.5322 299° West  Level Estimated
Wed 09:11:00 PM -43.4894 172.5322 299° West  Level Estimated
Wed 09:12:00 PM -43.4894 172.5322 299° West  Level Estimated
Wed 09:13:00 PM -43.4894 172.5322 299° West  Level Estimated
Wed 09:14:00 PM -43.4894 172.5322 299° West  Level Estimated
Wed 09:15:00 PM -43.4894 172.5322 299° West  Level Estimated
Wed 09:16:00 PM -43.4894 172.5322 299° West  Level Estimated
Wed 09:17:00 PM -43.4894 172.5322 299° West  Level Estimated
Wed 09:18:00 PM -43.4894 172.5322 299° West  Level Estimated
Wed 09:19:00 PM -43.4894 172.5322 299° West  Level Estimated
Wed 09:20:00 PM -43.4894 172.5322 299° West  Level Estimated
Wed 09:21:00 PM -43.4894 172.5322 299° West  Level Estimated
Wed 09:22:00 PM -43.4894 172.5322 299° West  Level Estimated
Wed 09:23:00 PM -43.4894 172.5322 299° West  Level Estimated
Wed 09:24:00 PM -43.4894 172.5322 299° West  Level Estimated
Wed 09:25:00 PM -43.4894 172.5322 299° West  Level Estimated
Wed 09:26:00 PM -43.4894 172.5322 299° West  Level Estimated
Wed 09:27:00 PM -43.4894 172.5322 299° West  Level Estimated
Wed 09:28:00 PM -43.4894 172.5322 299° West  Level Estimated
Wed 09:29:00 PM -43.4894 172.5322 299° West  Level Estimated
Wed 09:30:00 PM -43.4894 172.5322 299° West  Level Estimated
Wed 09:31:00 PM -43.4894 172.5322 299° West  Level Estimated
Wed 09:32:00 PM -43.4894 172.5322 299° West  Level Estimated
Wed 09:33:00 PM -43.4894 172.5322 299° West  Level Estimated
Wed 09:34:00 PM -43.4894 172.5322 299° West  Level Estimated
Wed 09:35:00 PM -43.4894 172.5322 299° West  Level Estimated
Wed 09:36:00 PM -43.4894 172.5322 299° West  Level Estimated
Wed 09:37:00 PM -43.4894 172.5322 299° West  Level Estimated
Wed 09:38:00 PM -43.4894 172.5322 299° West  Level Estimated
Wed 09:39:00 PM -43.4894 172.5322 299° West  Level Estimated
Wed 09:40:00 PM -43.4894 172.5322 299° West  Level Estimated
Wed 09:41:00 PM -43.4894 172.5322 299° West  Level Estimated
Wed 09:42:00 PM -43.4894 172.5322 299° West  Level Estimated
Wed 09:43:00 PM -43.4894 172.5322 299° West  Level Estimated
Wed 09:44:00 PM -43.4894 172.5322 299° West  Level Estimated
Wed 09:45:00 PM -43.4894 172.5322 299° West  Level Estimated
Wed 09:46:00 PM -43.4894 172.5322 299° West  Level Estimated
Wed 09:47:00 PM -43.4894 172.5322 299° West  Level Estimated
Wed 09:48:00 PM -43.4894 172.5322 299° West  Level Estimated
Wed 09:49:00 PM -43.4894 172.5322 299° West  Level Estimated
Wed 09:50:00 PM -43.4894 172.5322 299° West  Level Estimated
Wed 09:51:00 PM -43.4894 172.5322 299° West  Level Estimated
Wed 09:52:00 PM -43.4894 172.5322 299° West  Level Estimated
Wed 09:53:00 PM -43.4894 172.5322 299° West  Level Estimated
Wed 09:54:00 PM -43.4894 172.5322 299° West  Level Estimated
Wed 09:55:00 PM -43.4894 172.5322 299° West  Level Estimated
Wed 09:55:27 PM -41.3190 174.8070 North 133 153 400  Level FlightAware ADS-B
Wed 09:55:52 PM -41.3020 174.8090 North 130 150 1,800 2,509 Climbing FlightAware ADS-B
Wed 09:56:22 PM -41.2850 174.8100 North 130 150 2,700 1,600 Climbing FlightAware ADS-B
Wed 09:56:37 PM -41.2740 174.8100 360° North 150 173 3,000 1,067 Climbing FlightAware ADS-B
Wed 09:57:07 PM -41.2530 174.7970 335° Northwest 199 229 3,500 1,200 Climbing FlightAware ADS-B
Wed 09:57:22 PM -41.2470 174.7800 295° West 221 254 3,900 1,920 Climbing FlightAware ADS-B
Wed 09:57:32 PM -41.2460 174.7650 275° West 238 274 4,300 2,880 Climbing FlightAware ADS-B
Wed 09:57:47 PM -41.2520 174.7440 249° West 259 298 5,100 3,400 Climbing FlightAware ADS-B
Wed 09:58:02 PM -41.2670 174.7300 215° Southwest 276 318 6,000 3,600 Climbing FlightAware ADS-B
Wed 09:58:27 PM -41.2970 174.7150 201° Southwest 280 322 7,500 3,382 Climbing FlightAware ADS-B
Wed 09:58:57 PM -41.3340 174.7000 197° South 284 327 9,100 2,914 Climbing FlightAware ADS-B
Wed 09:59:37 PM -41.3850 174.6760 199° South 295 339 10,900 1,875 Climbing FlightAware ADS-B
Wed 10:00:17 PM -41.4400 174.6500 200° South 343 395 11,600 1,200 Climbing FlightAware ADS-B
Wed 10:01:02 PM -41.5120 174.6140 201° Southwest 375 432 12,600 2,000 Climbing FlightAware ADS-B
Wed 10:01:47 PM -41.5870 174.5780 200° South 378 435 14,600 2,612 Climbing FlightAware ADS-B
Wed 10:02:27 PM -41.6550 174.5440 200° South 379 436 16,300 2,259 Climbing FlightAware ADS-B
Wed 10:03:12 PM -41.7300 174.5070 200° South 395 455 17,800 2,753 Climbing FlightAware ADS-B
Wed 10:03:52 PM -41.7980 174.4700 202° Southwest 365 420 20,200 3,675 Climbing FlightAware ADS-B
Wed 10:04:32 PM -41.8530 174.4220 213° Southwest 334 384 22,700 2,612 Climbing FlightAware ADS-B
Wed 10:05:17 PM -41.9090 174.3710 214° Southwest 334 384 23,900 918 Climbing FlightAware ADS-B
Wed 10:05:57 PM -41.9610 174.3230 214° Southwest 336 387 24,000 75 Climbing FlightAware ADS-B
Wed 10:06:37 PM -42.0150 174.2740 214° Southwest 348 400 24,000  Level FlightAware ADS-B
Wed 10:07:22 PM -42.0750 174.2190 214° Southwest 347 399 24,000  Level FlightAware ADS-B
Wed 10:08:02 PM -42.1290 174.1700 214° Southwest 348 400 24,000  Level FlightAware ADS-B
Wed 10:08:47 PM -42.1870 174.1170 214° Southwest 343 395 24,000  Level FlightAware ADS-B
Wed 10:09:27 PM -42.2390 174.0690 214° Southwest 345 397 24,000  Level FlightAware ADS-B
Wed 10:10:07 PM -42.2920 174.0190 215° Southwest 347 399 24,000  Level FlightAware ADS-B
Wed 10:10:52 PM -42.3520 173.9640 214° Southwest 348 400 24,000  Level FlightAware ADS-B
Wed 10:11:32 PM -42.4060 173.9140 214° Southwest 345 397 24,000  Level FlightAware ADS-B
Wed 10:12:17 PM -42.4650 173.8580 215° Southwest 343 395 24,000  Level FlightAware ADS-B
Wed 10:12:57 PM -42.5180 173.8100 214° Southwest 343 395 24,000  Level FlightAware ADS-B
Wed 10:13:37 PM -42.5690 173.7620 215° Southwest 345 397 24,000  Level FlightAware ADS-B
Wed 10:14:22 PM -42.6290 173.7060 214° Southwest 345 397 24,000  Level FlightAware ADS-B
Wed 10:15:02 PM -42.6810 173.6570 215° Southwest 347 399 24,000 -565 Level FlightAware ADS-B
Wed 10:15:47 PM -42.7410 173.6010 214° Southwest 340 391 23,200 -1,129 Descending FlightAware ADS-B
Wed 10:16:27 PM -42.7900 173.5550 215° Southwest 324 373 22,400 -1,271 Descending FlightAware ADS-B
Wed 10:17:12 PM -42.8450 173.5030 215° Southwest 316 364 21,400 -1,533 Descending FlightAware ADS-B
Wed 10:17:57 PM -42.9000 173.4510 215° Southwest 313 360 20,100 -1,553 Descending FlightAware ADS-B
Wed 10:18:37 PM -42.9470 173.4060 215° Southwest 306 352 19,200 -1,425 Descending FlightAware ADS-B
Wed 10:19:17 PM -42.9920 173.3630 215° Southwest 300 345 18,200 -1,412 Descending FlightAware ADS-B
Wed 10:20:02 PM -43.0420 173.3160 214° Southwest 290 334 17,200 -1,412 Descending FlightAware ADS-B
Wed 10:20:42 PM -43.0860 173.2740 215° Southwest 286 329 16,200 -1,629 Descending FlightAware ADS-B
Wed 10:21:12 PM -43.1160 173.2380 221° Southwest 282 325 15,300 -1,569 Descending FlightAware ADS-B
Wed 10:21:47 PM -43.1430 173.1890 233° Southwest 276 318 14,500 -1,341 Descending FlightAware ADS-B
Wed 10:22:37 PM -43.1810 173.1200 233° Southwest 273 314 13,400 -1,333 Descending FlightAware ADS-B
Wed 10:23:17 PM -43.2110 173.0630 234° Southwest 272 313 12,500 -1,425 Descending FlightAware ADS-B
Wed 10:23:57 PM -43.2410 173.0090 233° Southwest 274 315 11,500 -1,275 Descending FlightAware ADS-B
Wed 10:24:37 PM -43.2740 172.9560 229° Southwest 269 310 10,800 -1,059 Descending FlightAware ADS-B
Wed 10:25:22 PM -43.3130 172.9050 224° Southwest 255 293 10,000 -1,040 Descending FlightAware ADS-B
Wed 10:25:52 PM -43.3390 172.8730 222° Southwest 244 281 9,500 -1,309 Descending FlightAware ADS-B
Wed 10:26:17 PM -43.3590 172.8460 224° Southwest 244 281 8,800 -1,745 Descending FlightAware ADS-B
Wed 10:26:47 PM -43.3840 172.8130 224° Southwest 253 291 7,900 -1,527 Descending FlightAware ADS-B
Wed 10:27:12 PM -43.4060 172.7850 223° Southwest 249 287 7,400 -1,091 Descending FlightAware ADS-B
Wed 10:27:42 PM -43.4300 172.7530 224° Southwest 241 277 6,900 -1,100 Descending FlightAware ADS-B
Wed 10:28:12 PM -43.4540 172.7220 223° Southwest 236 272 6,300 -873 Descending FlightAware ADS-B
Wed 10:28:37 PM -43.4730 172.6960 225° Southwest 250 288 6,100 -750 Descending FlightAware ADS-B
Wed 10:28:52 PM -43.4880 172.6780 221° Southwest 253 291 5,800 -800 Descending FlightAware ADS-B
Wed 10:29:22 PM -43.5130 172.6450 224° Southwest 251 289 5,500 -655 Descending FlightAware ADS-B
Wed 10:29:47 PM -43.5340 172.6180 223° Southwest 241 277 5,200 -750 Descending FlightAware ADS-B
Wed 10:30:02 PM -43.5450 172.6030 225° Southwest 235 270 5,000 -667 Descending FlightAware ADS-B
Wed 10:30:32 PM -43.5670 172.5740 224° Southwest 222 255 4,700 -655 Descending FlightAware ADS-B
Wed 10:30:57 PM -43.5870 172.5480 223° Southwest 211 243 4,400 -655 Descending FlightAware ADS-B
Wed 10:31:27 PM -43.6080 172.5210 223° Southwest 205 236 4,100 -700 Descending FlightAware ADS-B
Wed 10:31:57 PM -43.6270 172.4950 225° Southwest 198 228 3,700 -840 Descending FlightAware ADS-B
Wed 10:32:17 PM -43.6360 172.4740 239° Southwest 180 207 3,400 -900 Descending FlightAware ADS-B
Wed 10:32:37 PM -43.6310 172.4540 289° West 165 190 3,100 -720 Descending FlightAware ADS-B
Wed 10:33:07 PM -43.6160 172.4310 312° West 165 190 2,800 -545 Descending FlightAware ADS-B
Wed 10:33:32 PM -43.6030 172.4130 315° West 152 175 2,600 -400 Descending FlightAware ADS-B
Wed 10:33:37 PM -43.5990 172.4120 350° North 155 178 2,600 -400 Level FlightAware ADS-B
Wed 10:34:02 PM -43.5820 172.4240 27° Northeast 170 196 2,400 -600 Descending FlightAware ADS-B
Wed 10:34:27 PM -43.5670 172.4420 41° Northeast 168 193 2,100 -764 Descending FlightAware ADS-B
Wed 10:34:57 PM -43.5500 172.4610 39° Northeast 152 175 1,700 -800 Descending FlightAware ADS-B
Wed 10:35:27 PM -43.5350 172.4790 41° Northeast 140 161 1,300 -750 Descending FlightAware ADS-B
Wed 10:35:37 PM -43.5300 172.4850 41° Northeast 136 157 1,200 -750 Descending FlightAware ADS-B
Wed 10:36:07 PM -43.5160 172.5010 40° Northeast 134 154 800 -800 Descending FlightAware ADS-B
Wed 10:36:37 PM -43.5020 172.5180 41° Northeast 133 153 400 -800 Descending FlightAware ADS-B
Wed 10:36:52 PM -43.4950 172.5250 36° Northeast 135 155 200 -800 Descending FlightAware ADS-B

Login

Don't have an account? Register now (free) for customized features, flight alerts, and more!